createdAt,value
2024-01-09T00:02:09.790Z,51.20
2024-01-09T00:04:37.764Z,51.50
2024-01-09T00:07:05.829Z,51.40
2024-01-09T00:09:35.316Z,51.40
2024-01-09T00:12:06.675Z,51.40
2024-01-09T00:14:34.859Z,51.30
2024-01-09T00:17:01.708Z,51.40
2024-01-09T00:19:31.290Z,51.30
2024-01-09T00:22:01.591Z,51.50
2024-01-09T00:24:28.403Z,51.50
2024-01-09T00:26:56.685Z,51.80
2024-01-09T00:29:23.565Z,52.00
2024-01-09T00:31:51.685Z,52.40
2024-01-09T00:34:18.561Z,53.10
2024-01-09T00:36:46.681Z,53.50
2024-01-09T00:39:14.717Z,53.80
2024-01-09T00:41:41.976Z,54.10
2024-01-09T00:44:10.228Z,54.00
2024-01-09T00:46:37.357Z,54.10
2024-01-09T00:49:10.295Z,54.10
2024-01-09T00:51:39.338Z,54.00
2024-01-09T00:54:07.440Z,54.20
2024-01-09T00:56:34.516Z,54.10
2024-01-09T00:59:02.570Z,54.20
2024-01-09T01:01:29.420Z,54.10
2024-01-09T01:03:56.164Z,54.10
2024-01-09T01:06:25.039Z,54.10
2024-01-09T01:08:51.805Z,54.20
2024-01-09T01:11:18.601Z,54.10
2024-01-09T01:13:46.590Z,54.00
2024-01-09T01:16:14.632Z,53.90
2024-01-09T01:18:41.410Z,53.80
2024-01-09T01:21:09.932Z,54.00
2024-01-09T01:23:36.747Z,54.00
2024-01-09T01:26:07.265Z,54.00
2024-01-09T01:28:34.282Z,54.00
2024-01-09T01:31:02.656Z,54.10
2024-01-09T01:33:29.915Z,54.20
2024-01-09T01:35:58.288Z,54.20
2024-01-09T01:38:26.696Z,54.30
2024-01-09T01:40:53.897Z,54.40
2024-01-09T01:43:23.107Z,54.50
2024-01-09T01:45:52.670Z,54.50
2024-01-09T01:48:22.419Z,54.50
2024-01-09T01:50:50.229Z,54.40
2024-01-09T01:53:19.133Z,54.30
2024-01-09T01:55:46.614Z,54.50
2024-01-09T01:58:15.583Z,54.40
2024-01-09T02:00:42.896Z,54.20
2024-01-09T02:03:11.183Z,54.20
2024-01-09T02:05:43.772Z,54.20
2024-01-09T02:08:15.336Z,54.50
2024-01-09T02:10:44.692Z,54.50
2024-01-09T02:13:11.481Z,54.50
2024-01-09T02:15:39.666Z,54.40
2024-01-09T02:18:10.091Z,54.40
2024-01-09T02:20:38.053Z,54.40
2024-01-09T02:23:04.976Z,54.60
2024-01-09T02:25:31.964Z,54.50
2024-01-09T02:28:23.538Z,54.40
2024-01-09T02:30:52.921Z,54.30
2024-01-09T02:33:21.296Z,54.40
2024-01-09T02:35:49.517Z,54.50
2024-01-09T02:38:17.015Z,54.60
2024-01-09T02:40:45.097Z,54.40
2024-01-09T02:43:13.409Z,54.40
2024-01-09T02:49:03.616Z,54.90
2024-01-09T02:51:31.715Z,54.80
2024-01-09T02:53:58.437Z,54.60
2024-01-09T02:56:25.312Z,54.80
2024-01-09T02:58:52.092Z,54.50
2024-01-09T03:01:20.199Z,54.50
2024-01-09T03:03:48.531Z,54.40
2024-01-09T03:06:15.605Z,54.40
2024-01-09T03:08:42.619Z,54.30
2024-01-09T03:11:09.483Z,54.50
2024-01-09T03:13:40.007Z,54.60
2024-01-09T03:16:14.998Z,54.80
2024-01-09T03:18:42.635Z,54.50
2024-01-09T03:21:13.500Z,54.50
2024-01-09T03:23:40.596Z,54.50
2024-01-09T03:26:07.356Z,54.70
2024-01-09T03:28:37.652Z,54.80
2024-01-09T03:31:05.986Z,54.80
2024-01-09T03:33:34.066Z,54.70
2024-01-09T03:36:05.652Z,54.90
2024-01-09T03:38:34.028Z,54.90
2024-01-09T03:41:00.872Z,54.80
2024-01-09T03:43:27.644Z,54.90
2024-01-09T03:45:55.005Z,55.00
2024-01-09T03:48:21.822Z,55.00
2024-01-09T03:50:50.338Z,55.10
2024-01-09T03:53:19.201Z,55.10
2024-01-09T03:55:47.393Z,55.30
2024-01-09T03:58:14.341Z,55.30
2024-01-09T04:00:41.178Z,55.20
2024-01-09T04:03:10.270Z,55.80
2024-01-09T04:05:38.521Z,55.30
2024-01-09T04:08:06.840Z,55.40
2024-01-09T04:10:33.675Z,55.30
2024-01-09T04:13:02.634Z,55.40
2024-01-09T04:15:29.868Z,55.30
2024-01-09T04:17:56.802Z,55.20
2024-01-09T04:20:23.726Z,55.10
2024-01-09T04:22:54.225Z,55.20
2024-01-09T04:25:21.031Z,55.10
2024-01-09T04:27:47.854Z,55.30
2024-01-09T04:30:15.830Z,55.40
2024-01-09T04:32:43.801Z,55.40
2024-01-09T04:35:12.025Z,55.40
2024-01-09T04:37:39.978Z,55.60
2024-01-09T04:40:08.335Z,55.90
2024-01-09T04:42:35.867Z,55.70
2024-01-09T04:45:04.358Z,55.90
2024-01-09T04:47:31.374Z,55.60
2024-01-09T04:49:58.168Z,55.40
2024-01-09T04:52:25.024Z,55.40
2024-01-09T04:54:51.739Z,55.50
2024-01-09T04:57:18.502Z,56.10
2024-01-09T04:59:49.199Z,55.50
2024-01-09T05:02:17.622Z,55.70
2024-01-09T05:04:44.404Z,55.90
2024-01-09T05:07:12.418Z,55.90
2024-01-09T05:09:39.187Z,55.70
2024-01-09T05:12:08.518Z,55.80
2024-01-09T05:14:35.413Z,55.90
2024-01-09T05:17:03.334Z,55.90
2024-01-09T05:19:30.160Z,55.70
2024-01-09T05:21:58.252Z,55.90
2024-01-09T05:24:26.575Z,56.00
2024-01-09T05:26:57.675Z,55.90
2024-01-09T05:29:26.054Z,56.10
2024-01-09T05:31:52.857Z,55.90
2024-01-09T05:34:19.920Z,56.40
2024-01-09T05:36:46.788Z,56.40
2024-01-09T05:39:14.788Z,56.30
2024-01-09T05:41:41.591Z,56.40
2024-01-09T05:44:08.775Z,56.40
2024-01-09T05:46:36.724Z,56.20
2024-01-09T05:49:03.633Z,56.30
2024-01-09T05:51:31.827Z,56.30
2024-01-09T05:53:58.670Z,56.40
2024-01-09T05:56:25.576Z,56.40
2024-01-09T05:58:52.435Z,56.40
2024-01-09T06:01:20.451Z,56.20
2024-01-09T06:03:47.810Z,56.30
2024-01-09T06:06:16.124Z,56.40
2024-01-09T06:08:43.109Z,56.70
2024-01-09T06:11:10.942Z,56.90
2024-01-09T06:13:37.783Z,56.90
2024-01-09T06:16:06.057Z,56.60
2024-01-09T06:18:32.920Z,56.70
2024-01-09T06:21:01.428Z,56.80
2024-01-09T06:23:28.315Z,56.60
2024-01-09T06:25:56.496Z,56.60
2024-01-09T06:28:23.278Z,56.60
2024-01-09T06:30:50.793Z,56.70
2024-01-09T06:33:19.030Z,56.70
2024-01-09T06:35:47.072Z,56.60
2024-01-09T06:38:15.331Z,56.60
2024-01-09T06:40:43.151Z,56.70
2024-01-09T06:43:10.798Z,56.80
2024-01-09T06:45:37.567Z,56.70
2024-01-09T06:48:05.903Z,56.80
2024-01-09T06:50:38.102Z,57.10
2024-01-09T06:53:05.454Z,57.20
2024-01-09T06:55:32.299Z,57.10
2024-01-09T06:57:59.115Z,57.00
2024-01-09T07:00:25.934Z,57.10
2024-01-09T07:02:53.038Z,57.10
2024-01-09T07:05:21.668Z,57.00
2024-01-09T07:07:50.819Z,57.10
2024-01-09T07:10:19.435Z,57.20
2024-01-09T07:12:47.951Z,57.10
2024-01-09T07:15:17.301Z,56.90
2024-01-09T07:17:46.982Z,57.00
2024-01-09T07:20:14.966Z,57.10
2024-01-09T07:22:47.806Z,56.90
2024-01-09T07:25:17.122Z,57.00
2024-01-09T07:27:45.038Z,56.90
2024-01-09T07:30:14.011Z,57.10
2024-01-09T07:32:42.592Z,57.10
2024-01-09T07:35:11.023Z,57.20
2024-01-09T07:37:38.781Z,57.70
2024-01-09T07:40:09.801Z,57.40
2024-01-09T07:42:46.240Z,57.20
2024-01-09T07:45:21.586Z,57.10
2024-01-09T07:47:51.331Z,57.40
2024-01-09T07:50:19.270Z,57.70
2024-01-09T07:52:47.522Z,57.80
2024-01-09T07:55:17.846Z,57.90
2024-01-09T07:57:45.860Z,58.40
2024-01-09T08:00:16.507Z,57.90
2024-01-09T08:02:46.606Z,57.90
2024-01-09T08:05:15.755Z,57.80
2024-01-09T08:07:42.645Z,57.50
2024-01-09T08:10:11.290Z,57.40
2024-01-09T08:12:38.086Z,57.40
2024-01-09T08:15:06.504Z,57.80
2024-01-09T08:17:33.389Z,57.90
2024-01-09T08:20:02.433Z,57.90
2024-01-09T08:22:29.221Z,57.50
2024-01-09T08:24:56.101Z,57.40
2024-01-09T08:27:23.069Z,57.10
2024-01-09T08:29:51.431Z,57.50
2024-01-09T08:32:18.397Z,57.30
2024-01-09T08:34:46.796Z,57.20
2024-01-09T08:37:13.684Z,57.00
2024-01-09T08:39:41.551Z,56.80
2024-01-09T08:42:09.642Z,56.80
2024-01-09T08:44:39.200Z,56.30
2024-01-09T08:47:08.263Z,56.30
2024-01-09T08:49:35.050Z,56.10
2024-01-09T08:52:01.908Z,56.50
2024-01-09T08:54:28.675Z,56.30
2024-01-09T08:56:55.546Z,56.30
2024-01-09T08:59:22.424Z,56.20
2024-01-09T09:01:50.502Z,56.10
2024-01-09T09:04:18.592Z,56.00
2024-01-09T09:06:45.744Z,55.90
2024-01-09T09:09:15.419Z,56.00
2024-01-09T09:11:44.239Z,55.90
2024-01-09T09:14:13.872Z,55.80
2024-01-09T09:16:43.005Z,55.30
2024-01-09T09:19:12.526Z,54.90
2024-01-09T09:21:39.415Z,54.90
2024-01-09T09:24:07.479Z,54.70
2024-01-09T09:26:34.672Z,54.30
2024-01-09T09:29:10.527Z,54.50
2024-01-09T09:31:45.399Z,54.50
2024-01-09T09:34:13.413Z,54.20
2024-01-09T09:36:41.446Z,54.20
2024-01-09T09:39:09.429Z,54.20
2024-01-09T09:41:37.879Z,54.10
2024-01-09T09:44:05.992Z,54.30
2024-01-09T09:46:37.294Z,54.00
2024-01-09T09:49:07.081Z,53.80
2024-01-09T09:51:38.166Z,54.40
2024-01-09T09:54:09.416Z,53.70
2024-01-09T09:56:39.327Z,53.70
2024-01-09T09:59:10.720Z,53.60
2024-01-09T10:01:42.892Z,53.50
2024-01-09T10:04:41.237Z,53.40
2024-01-09T10:07:15.712Z,53.10
2024-01-09T10:09:45.869Z,53.20
2024-01-09T10:12:15.943Z,53.10
2024-01-09T10:15:14.120Z,53.00
2024-01-09T10:17:45.330Z,52.80
2024-01-09T10:20:13.775Z,52.90
2024-01-09T10:22:40.782Z,52.90
2024-01-09T10:25:10.974Z,52.60
2024-01-09T10:27:41.093Z,52.30
2024-01-09T10:30:12.952Z,52.50
2024-01-09T10:32:45.236Z,52.40
2024-01-09T10:35:15.016Z,52.10
2024-01-09T10:37:43.691Z,51.80
2024-01-09T10:40:12.263Z,52.00
2024-01-09T10:42:46.266Z,52.20
2024-01-09T10:45:16.078Z,52.20
2024-01-09T10:47:44.937Z,52.10
2024-01-09T10:50:13.437Z,51.80
2024-01-09T10:52:42.475Z,51.50
2024-01-09T10:55:11.416Z,51.80
2024-01-09T10:57:43.661Z,51.70
2024-01-09T11:00:13.185Z,51.80
2024-01-09T11:02:41.020Z,51.60
2024-01-09T11:05:11.481Z,51.50
2024-01-09T11:07:42.532Z,51.40
2024-01-09T11:10:16.831Z,51.40
2024-01-09T11:12:47.752Z,51.10
2024-01-09T11:15:27.402Z,51.40
2024-01-09T11:18:05.968Z,51.40
2024-01-09T11:20:34.617Z,51.20
2024-01-09T11:23:02.460Z,51.20
2024-01-09T11:25:29.279Z,51.30
2024-01-09T11:27:56.216Z,51.10
2024-01-09T11:30:26.739Z,51.10
2024-01-09T11:32:56.904Z,51.10
2024-01-09T11:35:26.580Z,51.10
2024-01-09T11:37:53.714Z,51.20
2024-01-09T11:40:22.697Z,51.00
2024-01-09T11:42:53.948Z,50.80
2024-01-09T11:45:26.347Z,50.90
2024-01-09T11:47:53.938Z,51.00
2024-01-09T11:50:22.452Z,50.80
2024-01-09T11:52:53.378Z,51.00
2024-01-09T11:55:22.016Z,50.90
2024-01-09T11:57:50.260Z,50.90
2024-01-09T12:00:18.768Z,50.70
2024-01-09T12:02:47.392Z,50.60
2024-01-09T12:05:15.882Z,50.20
2024-01-09T12:07:45.069Z,50.30
2024-01-09T12:10:21.638Z,50.20
2024-01-09T12:13:05.061Z,50.00
2024-01-09T12:15:32.864Z,50.00
2024-01-09T12:18:01.171Z,50.00
2024-01-09T12:20:28.055Z,49.70
2024-01-09T12:22:56.662Z,49.70
2024-01-09T12:25:24.012Z,49.30
2024-01-09T12:27:51.184Z,49.30
2024-01-09T12:30:18.222Z,48.90
2024-01-09T12:32:46.451Z,48.90
2024-01-09T12:35:14.854Z,48.70
2024-01-09T12:37:43.803Z,48.80
2024-01-09T12:40:16.877Z,48.60
2024-01-09T12:42:46.098Z,48.10
2024-01-09T12:45:15.484Z,48.40
2024-01-09T12:47:43.221Z,48.20
2024-01-09T12:50:27.893Z,47.70
2024-01-09T12:52:54.955Z,47.50
2024-01-09T12:55:21.749Z,47.40
2024-01-09T12:57:49.700Z,47.30
2024-01-09T13:00:21.794Z,47.30
2024-01-09T13:02:49.690Z,47.00
2024-01-09T13:05:16.661Z,47.10
2024-01-09T13:07:43.589Z,47.10
2024-01-09T13:10:12.173Z,46.70
2024-01-09T13:12:38.992Z,46.50
2024-01-09T13:15:06.181Z,46.20
2024-01-09T13:17:35.157Z,45.90
2024-01-09T13:20:03.361Z,45.70
2024-01-09T13:25:01.084Z,45.60
2024-01-09T13:27:29.459Z,45.20
2024-01-09T13:32:28.117Z,45.20
2024-01-09T13:34:55.197Z,45.00
2024-01-09T13:37:23.193Z,44.80
2024-01-09T13:39:51.178Z,44.20
2024-01-09T13:42:18.667Z,44.30
2024-01-09T13:44:46.911Z,44.50
2024-01-09T13:47:13.747Z,44.10
2024-01-09T13:51:41.531Z,44.10
2024-01-09T13:52:29.575Z,43.70
2024-01-09T13:54:56.620Z,43.70
2024-01-09T13:57:23.924Z,43.10
2024-01-09T13:59:51.423Z,43.20
2024-01-09T14:02:19.631Z,43.20
2024-01-09T14:04:46.488Z,42.90
2024-01-09T14:07:15.957Z,42.30
2024-01-09T14:09:42.796Z,42.90
2024-01-09T14:12:11.179Z,42.80
2024-01-09T14:14:37.971Z,42.60
2024-01-09T14:17:05.894Z,42.60
2024-01-09T14:19:33.736Z,42.40
2024-01-09T14:22:00.573Z,42.60
2024-01-09T14:24:27.553Z,42.50
2024-01-09T14:26:54.919Z,43.00
2024-01-09T14:29:21.745Z,43.20
2024-01-09T14:31:50.698Z,43.40
2024-01-09T14:34:18.654Z,44.20
2024-01-09T14:36:46.879Z,43.90
2024-01-09T14:39:14.704Z,43.90
2024-01-09T14:41:43.020Z,44.40
2024-01-09T14:44:11.430Z,44.20
2024-01-09T14:46:38.251Z,44.40
2024-01-09T14:49:05.885Z,44.80
2024-01-09T14:51:36.410Z,44.90
2024-01-09T14:54:04.882Z,45.10
2024-01-09T14:56:32.924Z,45.40
2024-01-09T14:58:59.782Z,45.60
2024-01-09T15:01:26.711Z,45.50
2024-01-09T15:03:54.126Z,45.40
2024-01-09T15:06:21.030Z,45.40
2024-01-09T15:08:47.868Z,45.40
2024-01-09T15:11:14.686Z,45.40
2024-01-09T15:13:41.616Z,45.60
2024-01-09T15:16:08.909Z,45.70
2024-01-09T15:18:35.787Z,45.70
2024-01-09T15:21:03.884Z,45.50
2024-01-09T15:23:32.367Z,45.60
2024-01-09T15:25:59.831Z,45.80
2024-01-09T15:28:27.963Z,45.70
2024-01-09T15:30:54.986Z,46.10
2024-01-09T15:33:21.960Z,46.20
2024-01-09T15:35:49.979Z,46.40
2024-01-09T15:38:16.813Z,46.60
2024-01-09T15:40:44.854Z,46.70
2024-01-09T15:43:11.923Z,46.80
2024-01-09T15:45:38.678Z,46.90
2024-01-09T15:48:10.016Z,47.00
2024-01-09T15:50:38.218Z,46.90
2024-01-09T15:53:06.599Z,46.80
2024-01-09T15:55:34.700Z,46.80
2024-01-09T15:58:04.608Z,46.80
2024-01-09T16:00:31.404Z,46.80
2024-01-09T16:02:58.181Z,47.10
2024-01-09T16:05:26.406Z,47.00
2024-01-09T16:07:54.743Z,47.20
2024-01-09T16:10:21.870Z,47.20
2024-01-09T16:12:50.096Z,47.00
2024-01-09T16:15:17.606Z,47.00
2024-01-09T16:17:45.773Z,46.90
2024-01-09T16:20:12.803Z,47.10
2024-01-09T16:22:40.746Z,47.50
2024-01-09T16:25:08.539Z,47.80
2024-01-09T16:27:37.009Z,48.10
2024-01-09T16:30:04.499Z,48.30
2024-01-09T16:32:32.572Z,48.50
2024-01-09T16:35:01.877Z,48.50
2024-01-09T16:37:28.840Z,48.50
2024-01-09T16:39:55.725Z,48.40
2024-01-09T16:42:22.627Z,47.90
2024-01-09T16:44:50.463Z,48.20
2024-01-09T16:47:20.653Z,48.40
2024-01-09T16:49:47.622Z,47.80
2024-01-09T16:52:15.998Z,47.70
2024-01-09T16:54:43.835Z,47.80
2024-01-09T16:57:12.055Z,47.80
2024-01-09T16:59:38.805Z,47.80
2024-01-09T17:02:07.142Z,47.80
2024-01-09T17:04:34.080Z,47.90
2024-01-09T17:07:02.290Z,48.10
2024-01-09T17:09:29.069Z,48.10
2024-01-09T17:11:56.948Z,48.60
2024-01-09T17:14:25.909Z,48.90
2024-01-09T17:16:53.677Z,49.00
2024-01-09T17:19:20.698Z,49.10
2024-01-09T17:21:48.524Z,49.20
2024-01-09T17:24:15.315Z,49.30
2024-01-09T17:26:42.577Z,49.50
2024-01-09T17:29:10.433Z,49.60
2024-01-09T17:31:37.284Z,50.00
2024-01-09T17:34:05.516Z,50.00
2024-01-09T17:36:32.315Z,50.10
2024-01-09T17:38:59.546Z,50.40
2024-01-09T17:41:26.361Z,50.50
2024-01-09T17:43:53.198Z,50.50
2024-01-09T17:46:22.769Z,50.80
2024-01-09T17:48:50.685Z,51.00
2024-01-09T17:51:18.621Z,51.00
2024-01-09T17:53:45.598Z,51.00
2024-01-09T17:56:13.997Z,51.20
2024-01-09T17:58:41.148Z,51.00
2024-01-09T18:01:09.331Z,51.10
2024-01-09T18:03:37.176Z,51.10
2024-01-09T18:06:06.262Z,51.30
2024-01-09T18:08:36.068Z,51.40
2024-01-09T18:11:04.239Z,51.70
2024-01-09T18:13:31.129Z,51.80
2024-01-09T18:15:58.054Z,51.70
2024-01-09T18:18:25.130Z,51.90
2024-01-09T18:20:54.023Z,51.90
2024-01-09T18:23:21.731Z,52.10
2024-01-09T18:25:51.896Z,52.40
2024-01-09T18:28:26.607Z,52.50
2024-01-09T18:30:57.707Z,52.50
2024-01-09T18:33:25.100Z,52.50
2024-01-09T18:35:53.152Z,52.70
2024-01-09T18:38:20.353Z,52.80
2024-01-09T18:40:48.742Z,52.90
2024-01-09T18:43:15.630Z,53.10
2024-01-09T18:45:45.374Z,53.20
2024-01-09T18:48:15.057Z,53.20
2024-01-09T18:50:42.308Z,53.20
2024-01-09T18:53:10.401Z,53.40
2024-01-09T18:55:38.815Z,53.50
2024-01-09T18:58:06.664Z,53.60
2024-01-09T19:00:34.743Z,53.70
2024-01-09T19:03:03.596Z,53.80
2024-01-09T19:05:30.844Z,53.80
2024-01-09T19:07:57.882Z,53.90
2024-01-09T19:10:25.440Z,53.90
2024-01-09T19:12:52.354Z,53.90
2024-01-09T19:15:20.816Z,53.80
2024-01-09T19:17:50.216Z,53.90
2024-01-09T19:20:20.264Z,54.00
2024-01-09T19:22:50.005Z,54.00
2024-01-09T19:25:20.489Z,54.10
2024-01-09T19:27:47.545Z,54.10
2024-01-09T19:30:15.968Z,54.10
2024-01-09T19:32:45.343Z,54.10
2024-01-09T19:35:14.207Z,54.10
2024-01-09T19:37:44.537Z,53.90
2024-01-09T19:40:13.081Z,53.80
2024-01-09T19:42:41.481Z,53.90
2024-01-09T19:45:11.208Z,53.80
2024-01-09T19:47:39.821Z,53.60
2024-01-09T19:50:08.704Z,53.60
2024-01-09T19:52:36.772Z,53.60
2024-01-09T19:55:05.329Z,53.80
2024-01-09T19:57:32.227Z,53.70
2024-01-09T20:00:00.584Z,53.80
2024-01-09T20:02:28.812Z,53.90
2024-01-09T20:04:56.181Z,54.10
2024-01-09T20:07:23.648Z,53.90
2024-01-09T20:09:51.880Z,53.90
2024-01-09T20:12:18.774Z,53.80
2024-01-09T20:14:46.997Z,53.90
2024-01-09T20:17:14.909Z,53.90
2024-01-09T20:19:46.310Z,54.00
2024-01-09T20:22:16.085Z,54.30
2024-01-09T20:24:43.641Z,54.20
2024-01-09T20:27:15.096Z,54.20
2024-01-09T20:29:44.141Z,54.30
2024-01-09T20:32:11.094Z,54.20
2024-01-09T20:34:40.397Z,54.30
2024-01-09T20:37:07.333Z,54.20
2024-01-09T20:39:36.939Z,54.10
2024-01-09T20:42:04.101Z,54.20
2024-01-09T20:44:32.052Z,54.10
2024-01-09T20:47:00.621Z,54.30
2024-01-09T20:49:29.003Z,54.40
2024-01-09T20:51:58.059Z,54.40
2024-01-09T20:54:24.976Z,54.30
2024-01-09T20:56:51.884Z,54.20
2024-01-09T20:59:20.724Z,54.30
2024-01-09T21:01:49.354Z,54.40
2024-01-09T21:04:16.312Z,54.30
2024-01-09T21:06:49.113Z,54.30
2024-01-09T21:09:16.756Z,54.40
2024-01-09T21:11:44.072Z,54.40
2024-01-09T21:14:11.239Z,54.30
2024-01-09T21:16:39.549Z,54.30
2024-01-09T21:19:06.660Z,54.50
2024-01-09T21:21:35.027Z,54.60
2024-01-09T21:24:01.965Z,54.60
2024-01-09T21:26:29.975Z,54.60
2024-01-09T21:28:58.129Z,54.90
2024-01-09T21:31:27.333Z,54.70
2024-01-09T21:33:55.444Z,54.90
2024-01-09T21:36:22.497Z,54.80
2024-01-09T21:38:52.333Z,54.70
2024-01-09T21:41:19.473Z,54.80
2024-01-09T21:43:49.326Z,54.70
2024-01-09T21:46:17.475Z,54.50
2024-01-09T21:48:46.083Z,54.60
2024-01-09T21:51:14.233Z,55.00
2024-01-09T21:53:41.594Z,55.60
2024-01-09T21:56:09.793Z,55.80
2024-01-09T21:58:36.828Z,56.20
2024-01-09T22:01:05.285Z,56.60
2024-01-09T22:03:32.240Z,56.80
2024-01-09T22:06:00.589Z,56.80
2024-01-09T22:08:29.873Z,56.70
2024-01-09T22:10:57.652Z,56.50
2024-01-09T22:13:26.147Z,56.50
2024-01-09T22:15:53.025Z,56.50
2024-01-09T22:18:20.864Z,57.10
2024-01-09T22:20:51.382Z,56.40
2024-01-09T22:23:21.955Z,56.30
2024-01-09T22:25:51.598Z,56.50
2024-01-09T22:28:19.980Z,56.80
2024-01-09T22:30:47.766Z,56.60
2024-01-09T22:33:16.102Z,56.40
2024-01-09T22:35:44.095Z,56.30
2024-01-09T22:38:11.596Z,56.30
2024-01-09T22:40:38.569Z,56.30
2024-01-09T22:43:05.590Z,56.20
2024-01-09T22:45:33.975Z,56.40
2024-01-09T22:48:02.377Z,56.40
2024-01-09T22:50:29.349Z,56.40
2024-01-09T22:52:56.342Z,56.50
2024-01-09T22:55:23.250Z,56.70
2024-01-09T22:57:50.510Z,56.90
2024-01-09T23:00:26.369Z,56.80
2024-01-09T23:02:54.796Z,57.00
2024-01-09T23:05:22.104Z,56.90
2024-01-09T23:07:52.937Z,56.90
2024-01-09T23:10:22.057Z,56.90
2024-01-09T23:12:49.107Z,56.80
2024-01-09T23:15:17.424Z,57.00
2024-01-09T23:17:44.450Z,57.00
2024-01-09T23:20:14.993Z,56.90
2024-01-09T23:22:45.102Z,56.80
2024-01-09T23:25:15.380Z,56.80
2024-01-09T23:27:43.547Z,56.80
2024-01-09T23:30:10.795Z,56.80
2024-01-09T23:32:37.790Z,56.90
2024-01-09T23:35:06.047Z,56.80
2024-01-09T23:37:34.098Z,56.90
2024-01-09T23:40:02.183Z,56.70
2024-01-09T23:42:29.298Z,57.40
2024-01-09T23:44:56.757Z,56.70
2024-01-09T23:47:23.909Z,56.80
2024-01-09T23:49:52.430Z,56.70
2024-01-09T23:52:23.233Z,56.60
2024-01-09T23:54:51.800Z,56.50
2024-01-09T23:57:18.904Z,56.60
2024-01-09T23:59:47.244Z,56.70
